sensor_id;sensor_type;location;lat;lon;timestamp;temperature;humidity
15217;DHT22;7711;46.634;14.318;2023-04-24T00:01:49;10.70;99.90
15217;DHT22;7711;46.634;14.318;2023-04-24T00:04:17;10.70;99.90
15217;DHT22;7711;46.634;14.318;2023-04-24T00:06:44;10.80;99.90
15217;DHT22;7711;46.634;14.318;2023-04-24T00:09:15;10.70;99.90
15217;DHT22;7711;46.634;14.318;2023-04-24T00:11:42;10.80;99.90
15217;DHT22;7711;46.634;14.318;2023-04-24T00:14:10;10.80;99.90
15217;DHT22;7711;46.634;14.318;2023-04-24T00:16:37;10.80;99.90
15217;DHT22;7711;46.634;14.318;2023-04-24T00:19:04;10.80;99.90
15217;DHT22;7711;46.634;14.318;2023-04-24T00:21:32;10.70;99.90
15217;DHT22;7711;46.634;14.318;2023-04-24T00:23:59;10.80;99.90
15217;DHT22;7711;46.634;14.318;2023-04-24T00:26:26;10.80;99.90
15217;DHT22;7711;46.634;14.318;2023-04-24T00:28:53;10.80;99.90
15217;DHT22;7711;46.634;14.318;2023-04-24T00:31:22;10.80;99.90
15217;DHT22;7711;46.634;14.318;2023-04-24T00:33:49;10.70;99.90
15217;DHT22;7711;46.634;14.318;2023-04-24T00:36:16;10.80;99.90
15217;DHT22;7711;46.634;14.318;2023-04-24T00:38:45;10.70;99.90
15217;DHT22;7711;46.634;14.318;2023-04-24T00:41:12;10.80;99.90
15217;DHT22;7711;46.634;14.318;2023-04-24T00:43:39;10.70;99.90
15217;DHT22;7711;46.634;14.318;2023-04-24T00:46:07;10.70;99.90
15217;DHT22;7711;46.634;14.318;2023-04-24T00:48:35;10.70;99.90
15217;DHT22;7711;46.634;14.318;2023-04-24T00:51:02;10.80;99.90
15217;DHT22;7711;46.634;14.318;2023-04-24T00:53:29;10.70;99.90
15217;DHT22;7711;46.634;14.318;2023-04-24T00:55:56;10.70;99.90
15217;DHT22;7711;46.634;14.318;2023-04-24T00:58:24;10.80;99.90
15217;DHT22;7711;46.634;14.318;2023-04-24T01:00:51;10.80;99.90
15217;DHT22;7711;46.634;14.318;2023-04-24T01:03:20;10.70;99.90
15217;DHT22;7711;46.634;14.318;2023-04-24T01:05:49;10.70;99.90
15217;DHT22;7711;46.634;14.318;2023-04-24T01:08:17;10.50;99.90
15217;DHT22;7711;46.634;14.318;2023-04-24T01:10:44;10.50;99.90
15217;DHT22;7711;46.634;14.318;2023-04-24T01:13:13;10.40;99.90
15217;DHT22;7711;46.634;14.318;2023-04-24T01:15:40;10.40;99.90
15217;DHT22;7711;46.634;14.318;2023-04-24T01:18:07;10.40;99.90
15217;DHT22;7711;46.634;14.318;2023-04-24T01:20:35;10.40;99.90
15217;DHT22;7711;46.634;14.318;2023-04-24T01:23:07;10.50;99.90
15217;DHT22;7711;46.634;14.318;2023-04-24T01:25:34;10.30;99.90
15217;DHT22;7711;46.634;14.318;2023-04-24T01:28:02;10.30;99.90
15217;DHT22;7711;46.634;14.318;2023-04-24T01:30:30;10.30;99.90
15217;DHT22;7711;46.634;14.318;2023-04-24T01:32:59;10.40;99.90
15217;DHT22;7711;46.634;14.318;2023-04-24T01:35:26;10.30;99.90
15217;DHT22;7711;46.634;14.318;2023-04-24T01:37:53;10.30;99.90
15217;DHT22;7711;46.634;14.318;2023-04-24T01:40:21;10.30;99.90
15217;DHT22;7711;46.634;14.318;2023-04-24T01:42:49;10.30;99.90
15217;DHT22;7711;46.634;14.318;2023-04-24T01:45:16;10.20;99.90
15217;DHT22;7711;46.634;14.318;2023-04-24T01:47:44;10.20;99.90
15217;DHT22;7711;46.634;14.318;2023-04-24T01:50:12;10.30;99.90
15217;DHT22;7711;46.634;14.318;2023-04-24T01:52:39;10.20;99.90
15217;DHT22;7711;46.634;14.318;2023-04-24T01:55:07;10.20;99.90
15217;DHT22;7711;46.634;14.318;2023-04-24T01:57:36;10.10;99.90
15217;DHT22;7711;46.634;14.318;2023-04-24T02:00:03;10.20;99.90
15217;DHT22;7711;46.634;14.318;2023-04-24T02:02:31;10.30;99.90
15217;DHT22;7711;46.634;14.318;2023-04-24T02:04:58;10.30;99.90
15217;DHT22;7711;46.634;14.318;2023-04-24T02:07:25;10.30;99.90
15217;DHT22;7711;46.634;14.318;2023-04-24T02:09:52;10.20;99.90
15217;DHT22;7711;46.634;14.318;2023-04-24T02:12:21;10.10;99.90
15217;DHT22;7711;46.634;14.318;2023-04-24T02:14:49;10.10;99.90
15217;DHT22;7711;46.634;14.318;2023-04-24T02:17:16;10.10;99.90
15217;DHT22;7711;46.634;14.318;2023-04-24T02:19:44;10.00;99.90
15217;DHT22;7711;46.634;14.318;2023-04-24T02:22:11;10.00;99.90
15217;DHT22;7711;46.634;14.318;2023-04-24T02:24:39;10.00;99.90
15217;DHT22;7711;46.634;14.318;2023-04-24T02:27:07;10.00;99.90
15217;DHT22;7711;46.634;14.318;2023-04-24T02:29:34;10.00;99.90
15217;DHT22;7711;46.634;14.318;2023-04-24T02:32:03;9.90;99.90
15217;DHT22;7711;46.634;14.318;2023-04-24T02:34:30;9.90;99.90
15217;DHT22;7711;46.634;14.318;2023-04-24T02:36:57;9.80;99.90
15217;DHT22;7711;46.634;14.318;2023-04-24T02:39:24;9.90;99.90
15217;DHT22;7711;46.634;14.318;2023-04-24T02:41:51;9.90;99.90
15217;DHT22;7711;46.634;14.318;2023-04-24T02:44:18;10.00;99.90
15217;DHT22;7711;46.634;14.318;2023-04-24T02:46:45;9.90;99.90
15217;DHT22;7711;46.634;14.318;2023-04-24T02:49:14;10.00;99.90
15217;DHT22;7711;46.634;14.318;2023-04-24T02:51:41;10.00;99.90
15217;DHT22;7711;46.634;14.318;2023-04-24T02:54:08;10.00;99.90
15217;DHT22;7711;46.634;14.318;2023-04-24T02:56:35;10.00;99.90
15217;DHT22;7711;46.634;14.318;2023-04-24T02:59:02;10.00;99.90
15217;DHT22;7711;46.634;14.318;2023-04-24T03:01:30;10.00;99.90
15217;DHT22;7711;46.634;14.318;2023-04-24T03:03:57;10.10;99.90
15217;DHT22;7711;46.634;14.318;2023-04-24T03:06:25;10.00;99.90
15217;DHT22;7711;46.634;14.318;2023-04-24T03:08:53;10.10;99.90
15217;DHT22;7711;46.634;14.318;2023-04-24T03:11:21;10.10;99.90
15217;DHT22;7711;46.634;14.318;2023-04-24T03:13:48;10.00;99.90
15217;DHT22;7711;46.634;14.318;2023-04-24T03:16:15;10.00;99.90
15217;DHT22;7711;46.634;14.318;2023-04-24T03:18:42;9.90;99.90
15217;DHT22;7711;46.634;14.318;2023-04-24T03:21:09;9.90;99.90
15217;DHT22;7711;46.634;14.318;2023-04-24T03:23:38;10.00;99.90
15217;DHT22;7711;46.634;14.318;2023-04-24T03:26:05;10.00;99.90
15217;DHT22;7711;46.634;14.318;2023-04-24T03:28:32;10.00;99.90
15217;DHT22;7711;46.634;14.318;2023-04-24T03:30:59;10.00;99.90
15217;DHT22;7711;46.634;14.318;2023-04-24T03:33:26;10.00;99.90
15217;DHT22;7711;46.634;14.318;2023-04-24T03:35:53;10.00;99.90
15217;DHT22;7711;46.634;14.318;2023-04-24T03:38:20;10.00;99.90
15217;DHT22;7711;46.634;14.318;2023-04-24T03:40:49;10.00;99.90
15217;DHT22;7711;46.634;14.318;2023-04-24T03:43:16;10.10;99.90
15217;DHT22;7711;46.634;14.318;2023-04-24T03:45:43;10.00;99.90
15217;DHT22;7711;46.634;14.318;2023-04-24T03:48:10;10.00;99.90
15217;DHT22;7711;46.634;14.318;2023-04-24T03:50:37;10.00;99.90
15217;DHT22;7711;46.634;14.318;2023-04-24T03:53:04;9.90;99.90
15217;DHT22;7711;46.634;14.318;2023-04-24T03:55:31;9.80;99.90
15217;DHT22;7711;46.634;14.318;2023-04-24T03:57:59;9.80;99.90
15217;DHT22;7711;46.634;14.318;2023-04-24T04:00:26;9.80;99.90
15217;DHT22;7711;46.634;14.318;2023-04-24T04:02:53;9.80;99.90
15217;DHT22;7711;46.634;14.318;2023-04-24T04:05:20;9.70;99.90
15217;DHT22;7711;46.634;14.318;2023-04-24T04:07:47;9.70;99.90
15217;DHT22;7711;46.634;14.318;2023-04-24T04:10:14;9.60;99.90
15217;DHT22;7711;46.634;14.318;2023-04-24T04:12:42;9.60;1.00
15217;DHT22;7711;46.634;14.318;2023-04-24T04:15:11;9.50;1.00
15217;DHT22;7711;46.634;14.318;2023-04-24T04:17:38;9.50;1.00
15217;DHT22;7711;46.634;14.318;2023-04-24T04:20:06;9.40;1.00
15217;DHT22;7711;46.634;14.318;2023-04-24T04:22:35;9.50;1.00
15217;DHT22;7711;46.634;14.318;2023-04-24T04:25:03;9.60;1.00
15217;DHT22;7711;46.634;14.318;2023-04-24T04:27:31;9.60;1.00
15217;DHT22;7711;46.634;14.318;2023-04-24T04:29:58;9.60;1.00
15217;DHT22;7711;46.634;14.318;2023-04-24T04:32:28;9.60;1.00
15217;DHT22;7711;46.634;14.318;2023-04-24T04:34:55;9.60;1.00
15217;DHT22;7711;46.634;14.318;2023-04-24T04:37:22;9.70;1.00
15217;DHT22;7711;46.634;14.318;2023-04-24T04:39:50;9.60;1.00
15217;DHT22;7711;46.634;14.318;2023-04-24T04:42:19;9.60;1.00
15217;DHT22;7711;46.634;14.318;2023-04-24T04:44:46;9.60;1.00
15217;DHT22;7711;46.634;14.318;2023-04-24T04:47:13;9.70;1.00
15217;DHT22;7711;46.634;14.318;2023-04-24T04:49:41;9.70;1.00
15217;DHT22;7711;46.634;14.318;2023-04-24T04:52:08;9.70;1.00
15217;DHT22;7711;46.634;14.318;2023-04-24T04:54:35;9.70;1.00
15217;DHT22;7711;46.634;14.318;2023-04-24T04:57:03;9.70;1.00
15217;DHT22;7711;46.634;14.318;2023-04-24T04:59:30;9.80;1.00
15217;DHT22;7711;46.634;14.318;2023-04-24T05:01:57;10.00;1.00
15217;DHT22;7711;46.634;14.318;2023-04-24T05:04:24;10.10;1.00
15217;DHT22;7711;46.634;14.318;2023-04-24T05:06:53;10.20;1.00
15217;DHT22;7711;46.634;14.318;2023-04-24T05:09:20;10.20;1.00
15217;DHT22;7711;46.634;14.318;2023-04-24T05:11:47;10.20;1.00
15217;DHT22;7711;46.634;14.318;2023-04-24T05:14:14;10.40;1.00
15217;DHT22;7711;46.634;14.318;2023-04-24T05:16:43;10.20;1.00
15217;DHT22;7711;46.634;14.318;2023-04-24T05:19:10;10.20;1.00
15217;DHT22;7711;46.634;14.318;2023-04-24T05:21:39;10.20;1.00
15217;DHT22;7711;46.634;14.318;2023-04-24T05:24:08;10.30;1.00
15217;DHT22;7711;46.634;14.318;2023-04-24T05:26:35;10.40;1.00
15217;DHT22;7711;46.634;14.318;2023-04-24T05:29:02;10.50;1.00
15217;DHT22;7711;46.634;14.318;2023-04-24T05:31:29;10.50;1.00
15217;DHT22;7711;46.634;14.318;2023-04-24T05:33:56;10.60;1.00
15217;DHT22;7711;46.634;14.318;2023-04-24T05:36:23;10.60;1.00
15217;DHT22;7711;46.634;14.318;2023-04-24T05:38:50;10.70;1.00
15217;DHT22;7711;46.634;14.318;2023-04-24T05:41:19;10.50;1.00
15217;DHT22;7711;46.634;14.318;2023-04-24T05:43:46;10.50;1.00
15217;DHT22;7711;46.634;14.318;2023-04-24T05:46:13;10.40;1.00
15217;DHT22;7711;46.634;14.318;2023-04-24T05:48:40;10.40;1.00
15217;DHT22;7711;46.634;14.318;2023-04-24T05:51:09;10.40;99.90
15217;DHT22;7711;46.634;14.318;2023-04-24T05:53:36;10.40;99.90
15217;DHT22;7711;46.634;14.318;2023-04-24T05:56:04;10.40;99.90
15217;DHT22;7711;46.634;14.318;2023-04-24T05:58:32;10.40;99.90
15217;DHT22;7711;46.634;14.318;2023-04-24T06:00:59;10.40;1.00
15217;DHT22;7711;46.634;14.318;2023-04-24T06:03:27;10.40;1.00
15217;DHT22;7711;46.634;14.318;2023-04-24T06:05:54;10.30;1.00
15217;DHT22;7711;46.634;14.318;2023-04-24T06:08:21;10.40;1.00
15217;DHT22;7711;46.634;14.318;2023-04-24T06:10:48;10.50;1.00
15217;DHT22;7711;46.634;14.318;2023-04-24T06:13:15;10.50;1.00
15217;DHT22;7711;46.634;14.318;2023-04-24T06:15:44;10.50;1.00
15217;DHT22;7711;46.634;14.318;2023-04-24T06:18:11;10.60;1.00
15217;DHT22;7711;46.634;14.318;2023-04-24T06:20:39;10.60;1.00
15217;DHT22;7711;46.634;14.318;2023-04-24T06:23:06;10.60;1.00
15217;DHT22;7711;46.634;14.318;2023-04-24T06:25:33;10.70;1.00
15217;DHT22;7711;46.634;14.318;2023-04-24T06:28:00;10.70;1.00
15217;DHT22;7711;46.634;14.318;2023-04-24T06:30:28;10.60;1.00
15217;DHT22;7711;46.634;14.318;2023-04-24T06:32:56;10.50;1.00
15217;DHT22;7711;46.634;14.318;2023-04-24T06:35:23;10.50;1.00
15217;DHT22;7711;46.634;14.318;2023-04-24T06:37:51;10.50;1.00
15217;DHT22;7711;46.634;14.318;2023-04-24T06:40:18;10.50;1.00
15217;DHT22;7711;46.634;14.318;2023-04-24T06:42:45;10.50;1.00
15217;DHT22;7711;46.634;14.318;2023-04-24T06:45:12;10.40;1.00
15217;DHT22;7711;46.634;14.318;2023-04-24T06:47:39;10.40;1.00
15217;DHT22;7711;46.634;14.318;2023-04-24T06:50:08;10.40;1.00
15217;DHT22;7711;46.634;14.318;2023-04-24T06:52:35;10.50;1.00
15217;DHT22;7711;46.634;14.318;2023-04-24T06:55:03;10.60;1.00
15217;DHT22;7711;46.634;14.318;2023-04-24T06:57:30;10.60;1.00
15217;DHT22;7711;46.634;14.318;2023-04-24T06:59:57;10.70;1.00
15217;DHT22;7711;46.634;14.318;2023-04-24T07:02:24;10.80;1.00
15217;DHT22;7711;46.634;14.318;2023-04-24T07:04:51;10.90;1.00
15217;DHT22;7711;46.634;14.318;2023-04-24T07:07:20;10.80;1.00
15217;DHT22;7711;46.634;14.318;2023-04-24T07:09:47;10.80;1.00
15217;DHT22;7711;46.634;14.318;2023-04-24T07:12:14;10.90;1.00
15217;DHT22;7711;46.634;14.318;2023-04-24T07:14:42;10.90;1.00
15217;DHT22;7711;46.634;14.318;2023-04-24T07:17:09;10.90;1.00
15217;DHT22;7711;46.634;14.318;2023-04-24T07:19:38;10.80;1.00
15217;DHT22;7711;46.634;14.318;2023-04-24T07:22:06;10.90;1.00
15217;DHT22;7711;46.634;14.318;2023-04-24T07:24:34;10.90;1.00
15217;DHT22;7711;46.634;14.318;2023-04-24T07:27:01;10.90;1.00
15217;DHT22;7711;46.634;14.318;2023-04-24T07:29:28;10.90;1.00
15217;DHT22;7711;46.634;14.318;2023-04-24T07:31:56;10.90;1.00
15217;DHT22;7711;46.634;14.318;2023-04-24T07:34:23;11.10;99.90
15217;DHT22;7711;46.634;14.318;2023-04-24T07:36:50;10.90;99.90
15217;DHT22;7711;46.634;14.318;2023-04-24T07:39:17;11.00;1.00
15217;DHT22;7711;46.634;14.318;2023-04-24T07:41:46;11.00;99.90
15217;DHT22;7711;46.634;14.318;2023-04-24T07:44:13;10.80;99.90
15217;DHT22;7711;46.634;14.318;2023-04-24T07:46:40;10.90;99.90
15217;DHT22;7711;46.634;14.318;2023-04-24T07:49:07;10.80;99.90
15217;DHT22;7711;46.634;14.318;2023-04-24T07:51:35;10.70;99.90
15217;DHT22;7711;46.634;14.318;2023-04-24T07:54:04;10.60;1.00
15217;DHT22;7711;46.634;14.318;2023-04-24T07:56:32;10.60;1.00
15217;DHT22;7711;46.634;14.318;2023-04-24T07:59:00;10.60;1.00
15217;DHT22;7711;46.634;14.318;2023-04-24T08:01:28;10.60;1.00
15217;DHT22;7711;46.634;14.318;2023-04-24T08:03:55;10.60;1.00
15217;DHT22;7711;46.634;14.318;2023-04-24T08:06:22;10.60;1.00
15217;DHT22;7711;46.634;14.318;2023-04-24T08:08:49;10.60;1.00
15217;DHT22;7711;46.634;14.318;2023-04-24T08:11:17;10.70;1.00
15217;DHT22;7711;46.634;14.318;2023-04-24T08:13:44;10.70;1.00
15217;DHT22;7711;46.634;14.318;2023-04-24T08:16:12;10.70;1.00
15217;DHT22;7711;46.634;14.318;2023-04-24T08:18:40;10.70;1.00
15217;DHT22;7711;46.634;14.318;2023-04-24T08:21:07;10.80;1.00
15217;DHT22;7711;46.634;14.318;2023-04-24T08:23:34;10.80;1.00
15217;DHT22;7711;46.634;14.318;2023-04-24T08:26:01;10.90;1.00
15217;DHT22;7711;46.634;14.318;2023-04-24T08:28:28;10.70;1.00
15217;DHT22;7711;46.634;14.318;2023-04-24T08:30:56;10.60;1.00
15217;DHT22;7711;46.634;14.318;2023-04-24T08:33:24;10.70;1.00
15217;DHT22;7711;46.634;14.318;2023-04-24T08:35:52;10.60;1.00
15217;DHT22;7711;46.634;14.318;2023-04-24T08:38:19;10.70;1.00
15217;DHT22;7711;46.634;14.318;2023-04-24T08:40:47;10.70;1.00
15217;DHT22;7711;46.634;14.318;2023-04-24T08:43:15;10.90;1.00
15217;DHT22;7711;46.634;14.318;2023-04-24T08:45:43;11.00;1.00
15217;DHT22;7711;46.634;14.318;2023-04-24T08:48:10;10.90;1.00
15217;DHT22;7711;46.634;14.318;2023-04-24T08:50:40;10.90;1.00
15217;DHT22;7711;46.634;14.318;2023-04-24T08:53:08;11.00;1.00
15217;DHT22;7711;46.634;14.318;2023-04-24T08:55:36;11.00;1.00
15217;DHT22;7711;46.634;14.318;2023-04-24T08:58:04;11.20;1.00
15217;DHT22;7711;46.634;14.318;2023-04-24T09:00:31;11.10;1.00
15217;DHT22;7711;46.634;14.318;2023-04-24T09:03:00;11.20;1.00
15217;DHT22;7711;46.634;14.318;2023-04-24T09:05:29;11.30;1.00
15217;DHT22;7711;46.634;14.318;2023-04-24T09:07:59;11.40;1.00
15217;DHT22;7711;46.634;14.318;2023-04-24T09:10:28;11.50;99.90
15217;DHT22;7711;46.634;14.318;2023-04-24T09:12:56;11.50;99.90
15217;DHT22;7711;46.634;14.318;2023-04-24T09:15:28;11.50;99.90
15217;DHT22;7711;46.634;14.318;2023-04-24T09:17:55;11.40;99.90
15217;DHT22;7711;46.634;14.318;2023-04-24T09:20:23;11.40;99.90
15217;DHT22;7711;46.634;14.318;2023-04-24T09:22:53;11.30;99.90
15217;DHT22;7711;46.634;14.318;2023-04-24T09:25:22;11.50;99.90
15217;DHT22;7711;46.634;14.318;2023-04-24T09:27:53;11.50;99.90
15217;DHT22;7711;46.634;14.318;2023-04-24T09:30:21;11.40;99.90
15217;DHT22;7711;46.634;14.318;2023-04-24T09:32:49;11.50;99.90
15217;DHT22;7711;46.634;14.318;2023-04-24T09:35:16;11.40;1.00
15217;DHT22;7711;46.634;14.318;2023-04-24T09:37:45;11.50;1.00
15217;DHT22;7711;46.634;14.318;2023-04-24T09:40:16;11.30;1.00
15217;DHT22;7711;46.634;14.318;2023-04-24T09:42:46;11.20;1.00
15217;DHT22;7711;46.634;14.318;2023-04-24T09:45:18;11.30;1.00
15217;DHT22;7711;46.634;14.318;2023-04-24T09:47:45;11.40;1.00
15217;DHT22;7711;46.634;14.318;2023-04-24T09:50:14;11.30;1.00
15217;DHT22;7711;46.634;14.318;2023-04-24T09:52:43;11.50;1.00
15217;DHT22;7711;46.634;14.318;2023-04-24T09:55:20;11.50;1.00
15217;DHT22;7711;46.634;14.318;2023-04-24T09:57:49;11.90;1.00
15217;DHT22;7711;46.634;14.318;2023-04-24T10:00:22;11.90;99.90
15217;DHT22;7711;46.634;14.318;2023-04-24T10:02:54;11.90;99.90
15217;DHT22;7711;46.634;14.318;2023-04-24T10:05:24;12.00;99.90
15217;DHT22;7711;46.634;14.318;2023-04-24T10:07:51;12.10;99.90
15217;DHT22;7711;46.634;14.318;2023-04-24T10:10:22;12.00;99.90
15217;DHT22;7711;46.634;14.318;2023-04-24T10:12:51;12.00;99.90
15217;DHT22;7711;46.634;14.318;2023-04-24T10:15:19;11.90;99.90
15217;DHT22;7711;46.634;14.318;2023-04-24T10:17:48;12.00;99.90
15217;DHT22;7711;46.634;14.318;2023-04-24T10:20:21;11.70;99.90
15217;DHT22;7711;46.634;14.318;2023-04-24T10:22:50;11.90;99.90
15217;DHT22;7711;46.634;14.318;2023-04-24T10:25:19;11.60;99.90
15217;DHT22;7711;46.634;14.318;2023-04-24T10:27:47;11.50;99.90
15217;DHT22;7711;46.634;14.318;2023-04-24T10:30:16;11.50;99.90
15217;DHT22;7711;46.634;14.318;2023-04-24T10:32:43;11.80;99.90
15217;DHT22;7711;46.634;14.318;2023-04-24T10:35:13;11.90;99.90
15217;DHT22;7711;46.634;14.318;2023-04-24T10:37:43;11.80;99.90
15217;DHT22;7711;46.634;14.318;2023-04-24T10:40:12;11.90;99.90
15217;DHT22;7711;46.634;14.318;2023-04-24T10:42:42;11.80;99.90
15217;DHT22;7711;46.634;14.318;2023-04-24T10:45:18;12.20;99.90
15217;DHT22;7711;46.634;14.318;2023-04-24T10:47:57;12.10;99.90
15217;DHT22;7711;46.634;14.318;2023-04-24T10:50:26;12.10;99.90
15217;DHT22;7711;46.634;14.318;2023-04-24T10:52:54;12.30;99.90
15217;DHT22;7711;46.634;14.318;2023-04-24T10:55:42;12.10;99.90
15217;DHT22;7711;46.634;14.318;2023-04-24T10:58:10;12.30;99.90
15217;DHT22;7711;46.634;14.318;2023-04-24T11:00:39;12.40;99.90
15217;DHT22;7711;46.634;14.318;2023-04-24T11:03:09;12.40;99.90
15217;DHT22;7711;46.634;14.318;2023-04-24T11:06:08;12.30;99.90
15217;DHT22;7711;46.634;14.318;2023-04-24T11:08:39;12.30;99.90
15217;DHT22;7711;46.634;14.318;2023-04-24T11:11:10;12.60;99.90
15217;DHT22;7711;46.634;14.318;2023-04-24T11:14:05;12.50;99.90
15217;DHT22;7711;46.634;14.318;2023-04-24T11:16:54;12.50;99.90
15217;DHT22;7711;46.634;14.318;2023-04-24T11:19:23;12.60;99.90
15217;DHT22;7711;46.634;14.318;2023-04-24T11:21:57;12.50;99.90
15217;DHT22;7711;46.634;14.318;2023-04-24T11:24:27;12.80;99.90
15217;DHT22;7711;46.634;14.318;2023-04-24T11:26:55;13.10;99.90
15217;DHT22;7711;46.634;14.318;2023-04-24T11:29:23;13.00;99.90
15217;DHT22;7711;46.634;14.318;2023-04-24T11:32:17;13.20;99.90
15217;DHT22;7711;46.634;14.318;2023-04-24T11:34:46;13.30;99.90
15217;DHT22;7711;46.634;14.318;2023-04-24T11:37:14;13.00;99.90
15217;DHT22;7711;46.634;14.318;2023-04-24T11:39:40;13.10;99.90
15217;DHT22;7711;46.634;14.318;2023-04-24T11:42:08;13.10;99.90
15217;DHT22;7711;46.634;14.318;2023-04-24T11:44:35;13.20;99.90
15217;DHT22;7711;46.634;14.318;2023-04-24T11:47:03;13.20;99.90
15217;DHT22;7711;46.634;14.318;2023-04-24T11:49:31;13.10;99.90
15217;DHT22;7711;46.634;14.318;2023-04-24T11:51:59;13.20;99.90
15217;DHT22;7711;46.634;14.318;2023-04-24T11:54:27;12.90;99.90
15217;DHT22;7711;46.634;14.318;2023-04-24T11:56:55;12.80;99.90
15217;DHT22;7711;46.634;14.318;2023-04-24T11:59:22;12.80;99.90
15217;DHT22;7711;46.634;14.318;2023-04-24T12:01:50;12.90;99.90
15217;DHT22;7711;46.634;14.318;2023-04-24T12:04:18;12.90;99.90
15217;DHT22;7711;46.634;14.318;2023-04-24T12:07:02;12.80;99.90
15217;DHT22;7711;46.634;14.318;2023-04-24T12:09:40;13.10;99.90
15217;DHT22;7711;46.634;14.318;2023-04-24T12:12:08;12.90;99.90
15217;DHT22;7711;46.634;14.318;2023-04-24T12:14:43;13.10;99.90
15217;DHT22;7711;46.634;14.318;2023-04-24T12:17:10;13.00;99.90
15217;DHT22;7711;46.634;14.318;2023-04-24T12:19:37;13.10;99.90
15217;DHT22;7711;46.634;14.318;2023-04-24T12:22:06;13.00;99.90
15217;DHT22;7711;46.634;14.318;2023-04-24T12:24:33;13.20;99.90
15217;DHT22;7711;46.634;14.318;2023-04-24T12:27:00;13.10;99.90
15217;DHT22;7711;46.634;14.318;2023-04-24T12:29:28;13.20;99.90
15217;DHT22;7711;46.634;14.318;2023-04-24T12:31:55;13.40;99.90
15217;DHT22;7711;46.634;14.318;2023-04-24T12:34:23;13.60;99.90
15217;DHT22;7711;46.634;14.318;2023-04-24T12:36:50;13.60;99.90
15217;DHT22;7711;46.634;14.318;2023-04-24T12:39:19;13.50;99.90
15217;DHT22;7711;46.634;14.318;2023-04-24T12:41:55;13.40;99.90
15217;DHT22;7711;46.634;14.318;2023-04-24T12:44:30;12.90;99.90
15217;DHT22;7711;46.634;14.318;2023-04-24T12:46:58;12.80;99.90
15217;DHT22;7711;46.634;14.318;2023-04-24T12:49:25;12.60;99.90
15217;DHT22;7711;46.634;14.318;2023-04-24T12:51:52;12.80;99.90
15217;DHT22;7711;46.634;14.318;2023-04-24T12:54:20;12.70;99.90
15217;DHT22;7711;46.634;14.318;2023-04-24T12:56:47;12.60;99.90
15217;DHT22;7711;46.634;14.318;2023-04-24T12:59:14;12.70;99.90
15217;DHT22;7711;46.634;14.318;2023-04-24T13:01:41;12.80;99.90
15217;DHT22;7711;46.634;14.318;2023-04-24T13:04:08;12.70;99.90
15217;DHT22;7711;46.634;14.318;2023-04-24T13:06:35;12.60;99.90
15217;DHT22;7711;46.634;14.318;2023-04-24T13:09:02;12.60;99.90
15217;DHT22;7711;46.634;14.318;2023-04-24T13:11:31;12.50;99.90
15217;DHT22;7711;46.634;14.318;2023-04-24T13:13:58;12.50;99.90
15217;DHT22;7711;46.634;14.318;2023-04-24T13:16:25;12.50;99.90
15217;DHT22;7711;46.634;14.318;2023-04-24T13:18:52;12.30;99.90
15217;DHT22;7711;46.634;14.318;2023-04-24T13:21:19;12.20;99.90
15217;DHT22;7711;46.634;14.318;2023-04-24T13:23:46;12.10;99.90
15217;DHT22;7711;46.634;14.318;2023-04-24T13:26:14;12.20;99.90
15217;DHT22;7711;46.634;14.318;2023-04-24T13:28:42;12.20;99.90
15217;DHT22;7711;46.634;14.318;2023-04-24T13:31:09;12.20;99.90
15217;DHT22;7711;46.634;14.318;2023-04-24T13:33:36;12.20;99.90
15217;DHT22;7711;46.634;14.318;2023-04-24T13:36:03;12.10;99.90
15217;DHT22;7711;46.634;14.318;2023-04-24T13:38:31;11.90;99.90
15217;DHT22;7711;46.634;14.318;2023-04-24T13:40:58;11.90;99.90
15217;DHT22;7711;46.634;14.318;2023-04-24T13:43:25;12.00;99.90
15217;DHT22;7711;46.634;14.318;2023-04-24T13:45:53;12.00;99.90
15217;DHT22;7711;46.634;14.318;2023-04-24T13:48:21;11.70;99.90
15217;DHT22;7711;46.634;14.318;2023-04-24T13:50:48;11.70;99.90
15217;DHT22;7711;46.634;14.318;2023-04-24T13:53:15;11.80;99.90
15217;DHT22;7711;46.634;14.318;2023-04-24T13:55:42;11.70;99.90
15217;DHT22;7711;46.634;14.318;2023-04-24T13:58:09;11.80;99.90
15217;DHT22;7711;46.634;14.318;2023-04-24T14:00:36;11.90;99.90
15217;DHT22;7711;46.634;14.318;2023-04-24T14:03:05;11.70;99.90
15217;DHT22;7711;46.634;14.318;2023-04-24T14:05:32;11.60;99.90
15217;DHT22;7711;46.634;14.318;2023-04-24T14:07:59;11.40;99.90
15217;DHT22;7711;46.634;14.318;2023-04-24T14:10:26;11.40;99.90
15217;DHT22;7711;46.634;14.318;2023-04-24T14:12:53;11.30;99.90
15217;DHT22;7711;46.634;14.318;2023-04-24T14:15:20;11.30;99.90
15217;DHT22;7711;46.634;14.318;2023-04-24T14:17:48;11.40;99.90
15217;DHT22;7711;46.634;14.318;2023-04-24T14:20:17;11.30;99.90
15217;DHT22;7711;46.634;14.318;2023-04-24T14:22:44;11.30;99.90
15217;DHT22;7711;46.634;14.318;2023-04-24T14:25:11;11.30;99.90
15217;DHT22;7711;46.634;14.318;2023-04-24T14:27:38;11.40;99.90
15217;DHT22;7711;46.634;14.318;2023-04-24T14:30:07;11.10;99.90
15217;DHT22;7711;46.634;14.318;2023-04-24T14:32:34;11.10;99.90
15217;DHT22;7711;46.634;14.318;2023-04-24T14:35:01;10.90;99.90
15217;DHT22;7711;46.634;14.318;2023-04-24T14:37:30;10.80;99.90
15217;DHT22;7711;46.634;14.318;2023-04-24T14:39:57;10.60;99.90
15217;DHT22;7711;46.634;14.318;2023-04-24T14:42:24;10.70;99.90
15217;DHT22;7711;46.634;14.318;2023-04-24T14:44:51;10.50;99.90
15217;DHT22;7711;46.634;14.318;2023-04-24T14:47:18;10.50;99.90
15217;DHT22;7711;46.634;14.318;2023-04-24T14:49:47;10.50;1.00
15217;DHT22;7711;46.634;14.318;2023-04-24T14:52:14;10.50;99.90
15217;DHT22;7711;46.634;14.318;2023-04-24T14:54:43;10.50;99.90
15217;DHT22;7711;46.634;14.318;2023-04-24T14:57:10;10.50;1.00
15217;DHT22;7711;46.634;14.318;2023-04-24T14:59:37;10.50;1.00
15217;DHT22;7711;46.634;14.318;2023-04-24T15:02:05;10.50;1.00
15217;DHT22;7711;46.634;14.318;2023-04-24T15:04:33;10.50;1.00
15217;DHT22;7711;46.634;14.318;2023-04-24T15:07:00;10.40;1.00
15217;DHT22;7711;46.634;14.318;2023-04-24T15:09:27;10.40;1.00
15217;DHT22;7711;46.634;14.318;2023-04-24T15:11:56;10.30;1.00
15217;DHT22;7711;46.634;14.318;2023-04-24T15:14:24;10.30;1.00
15217;DHT22;7711;46.634;14.318;2023-04-24T15:16:51;10.20;1.00
15217;DHT22;7711;46.634;14.318;2023-04-24T15:19:18;10.20;1.00
15217;DHT22;7711;46.634;14.318;2023-04-24T15:21:45;10.20;1.00
15217;DHT22;7711;46.634;14.318;2023-04-24T15:24:12;10.00;1.00
15217;DHT22;7711;46.634;14.318;2023-04-24T15:26:39;10.00;1.00
15217;DHT22;7711;46.634;14.318;2023-04-24T15:29:08;10.00;1.00
15217;DHT22;7711;46.634;14.318;2023-04-24T15:31:35;9.90;1.00
15217;DHT22;7711;46.634;14.318;2023-04-24T15:34:05;9.90;1.00
15217;DHT22;7711;46.634;14.318;2023-04-24T15:36:32;9.90;1.00
15217;DHT22;7711;46.634;14.318;2023-04-24T15:39:00;9.90;1.00
15217;DHT22;7711;46.634;14.318;2023-04-24T15:41:27;10.00;1.00
15217;DHT22;7711;46.634;14.318;2023-04-24T15:43:54;10.00;1.00